createdAt,value
2019-02-28T00:01:03.179Z,70.10
2019-02-28T00:03:32.440Z,70.30
2019-02-28T00:06:01.700Z,70.30
2019-02-28T00:08:30.973Z,70.40
2019-02-28T00:11:02.047Z,70.60
2019-02-28T00:13:31.205Z,70.70
2019-02-28T00:16:03.439Z,70.80
2019-02-28T00:18:31.454Z,70.70
2019-02-28T00:21:06.089Z,70.70
2019-02-28T00:23:31.686Z,70.70
2019-02-28T00:26:00.951Z,70.80
2019-02-28T00:28:30.230Z,70.90
2019-02-28T00:30:59.488Z,71.30
2019-02-28T00:33:30.814Z,71.30
2019-02-28T00:35:59.727Z,71.40
2019-02-28T00:38:29.829Z,71.50
2019-02-28T00:40:59.699Z,71.70
2019-02-28T00:43:28.972Z,71.80
2019-02-28T00:45:58.248Z,71.90
2019-02-28T00:48:27.512Z,72.10
2019-02-28T00:50:58.503Z,72.30
2019-02-28T00:53:27.751Z,72.50
2019-02-28T00:55:57.020Z,72.60
2019-02-28T00:58:28.860Z,72.70
2019-02-28T01:00:57.260Z,72.90
2019-02-28T01:03:27.508Z,72.90
2019-02-28T01:05:56.973Z,73.10
2019-02-28T01:08:27.305Z,73.10
2019-02-28T01:10:56.574Z,73.20
2019-02-28T01:13:28.013Z,73.40
2019-02-28T01:15:56.812Z,73.40
2019-02-28T01:18:26.071Z,73.50
2019-02-28T01:20:55.355Z,73.70
2019-02-28T01:23:24.608Z,73.90
2019-02-28T01:25:53.891Z,74.00
2019-02-28T01:28:23.368Z,74.20
2019-02-28T01:30:54.406Z,74.20
2019-02-28T01:33:24.888Z,74.30
2019-02-28T01:35:54.632Z,74.30
2019-02-28T01:38:24.170Z,74.50
2019-02-28T01:40:55.520Z,74.60
2019-02-28T01:43:28.329Z,74.80
2019-02-28T01:45:55.753Z,74.70
2019-02-28T01:48:25.025Z,74.90
2019-02-28T01:50:54.289Z,75.00
2019-02-28T01:53:23.553Z,75.00
2019-02-28T01:55:52.823Z,75.30
2019-02-28T01:58:22.085Z,75.30
2019-02-28T02:00:51.352Z,75.40
2019-02-28T02:03:20.621Z,75.60
2019-02-28T02:05:51.710Z,75.50
2019-02-28T02:08:20.852Z,75.60
2019-02-28T02:10:54.872Z,75.80
2019-02-28T02:13:22.157Z,75.90
2019-02-28T02:15:52.109Z,76.10
2019-02-28T02:18:22.444Z,76.20
2019-02-28T02:20:51.722Z,76.10
2019-02-28T02:23:20.997Z,76.40
2019-02-28T02:25:50.264Z,76.40
2019-02-28T02:28:19.531Z,76.50
2019-02-28T02:30:50.987Z,76.60
2019-02-28T02:33:19.862Z,76.70
2019-02-28T02:35:49.208Z,76.90
2019-02-28T02:38:18.534Z,77.00
2019-02-28T02:40:47.796Z,77.20
2019-02-28T02:43:17.068Z,77.40
2019-02-28T02:45:46.506Z,78.30
2019-02-28T02:48:15.781Z,77.50
2019-02-28T02:50:45.053Z,77.60
2019-02-28T02:53:14.325Z,77.70
2019-02-28T02:55:43.590Z,77.80
2019-02-28T02:58:12.862Z,78.00
2019-02-28T03:00:42.129Z,78.20
2019-02-28T03:03:11.392Z,78.30
2019-02-28T03:05:40.659Z,78.50
2019-02-28T03:08:09.927Z,78.60
2019-02-28T03:10:39.186Z,78.60
2019-02-28T03:13:08.456Z,78.80
2019-02-28T03:15:37.793Z,78.90
2019-02-28T03:18:07.078Z,79.00
2019-02-28T03:20:36.346Z,79.20
2019-02-28T03:23:05.615Z,79.30
2019-02-28T03:25:34.876Z,79.30
2019-02-28T03:28:04.145Z,79.40
2019-02-28T03:30:33.886Z,79.50
2019-02-28T03:33:03.532Z,79.60
2019-02-28T03:35:41.447Z,79.80
2019-02-28T03:38:10.187Z,79.80
2019-02-28T03:40:39.818Z,79.90
2019-02-28T03:43:06.964Z,80.00
2019-02-28T03:45:36.535Z,80.00
2019-02-28T03:48:05.848Z,80.10
2019-02-28T03:50:35.108Z,80.30
2019-02-28T03:53:04.381Z,80.30
2019-02-28T03:55:40.315Z,80.40
2019-02-28T03:58:05.827Z,80.60
2019-02-28T04:00:36.370Z,80.60
2019-02-28T04:03:05.645Z,80.70
2019-02-28T04:05:36.049Z,81.70
2019-02-28T04:08:05.322Z,81.00
2019-02-28T04:10:34.587Z,81.10
2019-02-28T04:13:03.928Z,81.20
2019-02-28T04:15:33.193Z,81.30
2019-02-28T04:18:07.091Z,81.50
2019-02-28T04:20:37.511Z,81.50
2019-02-28T04:23:04.430Z,81.60
2019-02-28T04:25:33.697Z,81.60
2019-02-28T04:28:02.980Z,81.70
2019-02-28T04:30:34.014Z,82.00
2019-02-28T04:33:03.283Z,82.00
2019-02-28T04:35:32.551Z,82.10
2019-02-28T04:38:01.824Z,82.10
2019-02-28T04:40:32.060Z,82.30
2019-02-28T04:43:01.328Z,82.30
2019-02-28T04:45:30.595Z,83.20
2019-02-28T04:48:00.946Z,82.40
2019-02-28T04:50:32.049Z,82.50
2019-02-28T04:53:01.192Z,82.60
2019-02-28T04:55:34.226Z,82.70
2019-02-28T04:58:02.778Z,82.90
2019-02-28T05:00:32.043Z,82.90
2019-02-28T05:03:01.318Z,83.00
2019-02-28T05:05:30.587Z,83.10
2019-02-28T05:08:04.690Z,83.20
2019-02-28T05:10:30.829Z,83.30
2019-02-28T05:13:00.097Z,83.40
2019-02-28T05:15:29.382Z,83.50
2019-02-28T05:17:58.660Z,83.60
2019-02-28T05:20:27.938Z,83.70
2019-02-28T05:23:01.716Z,83.70
2019-02-28T05:25:28.183Z,83.80
2019-02-28T05:27:57.457Z,83.90
2019-02-28T05:30:26.728Z,84.10
2019-02-28T05:32:56.000Z,84.10
2019-02-28T05:35:26.573Z,84.30
2019-02-28T05:37:56.121Z,84.40
2019-02-28T05:40:25.400Z,84.40
2019-02-28T05:42:58.278Z,84.70
2019-02-28T05:45:26.622Z,84.60
2019-02-28T05:47:55.892Z,84.70
2019-02-28T05:50:25.168Z,84.80
2019-02-28T05:52:54.509Z,84.90
2019-02-28T05:55:25.704Z,85.00
2019-02-28T05:57:54.747Z,85.00
2019-02-28T06:00:25.097Z,85.00
2019-02-28T06:02:57.824Z,85.10
2019-02-28T06:05:25.332Z,85.20
2019-02-28T06:07:54.604Z,85.20
2019-02-28T06:10:24.894Z,85.30
2019-02-28T06:12:54.251Z,85.50
2019-02-28T06:15:23.519Z,85.50
2019-02-28T06:17:55.033Z,85.60
2019-02-28T06:20:23.758Z,86.00
2019-02-28T06:22:53.052Z,85.70
2019-02-28T06:25:24.975Z,85.90
2019-02-28T06:27:53.286Z,86.00
2019-02-28T06:30:22.568Z,86.20
2019-02-28T06:32:51.850Z,86.30
2019-02-28T06:35:21.121Z,86.50
2019-02-28T06:37:50.393Z,86.60
2019-02-28T06:40:20.741Z,86.70
2019-02-28T06:42:50.013Z,86.80
2019-02-28T06:45:20.026Z,86.90
2019-02-28T06:47:50.110Z,87.80
2019-02-28T06:50:19.733Z,87.20
2019-02-28T06:52:48.996Z,88.00
2019-02-28T06:55:19.917Z,87.30
2019-02-28T06:57:49.181Z,87.40
2019-02-28T07:00:18.628Z,87.40
2019-02-28T07:02:49.982Z,87.40
2019-02-28T07:05:24.733Z,87.80
2019-02-28T07:07:50.056Z,87.80
2019-02-28T07:10:19.755Z,87.60
2019-02-28T07:12:49.052Z,87.60
2019-02-28T07:15:23.707Z,87.60
2019-02-28T07:17:49.312Z,87.80
2019-02-28T07:20:19.708Z,88.00
2019-02-28T07:22:54.601Z,88.20
2019-02-28T07:25:19.939Z,88.10
2019-02-28T07:27:49.230Z,88.10
2019-02-28T07:30:20.505Z,88.30
2019-02-28T07:32:49.804Z,88.10
2019-02-28T07:35:19.066Z,88.00
2019-02-28T07:37:53.208Z,88.00
2019-02-28T07:40:20.383Z,88.00
2019-02-28T07:42:49.664Z,88.10
2019-02-28T07:45:19.901Z,88.00
2019-02-28T07:47:52.776Z,88.10
2019-02-28T07:50:20.223Z,88.10
2019-02-28T07:52:49.496Z,88.00
2019-02-28T07:55:21.711Z,87.90
2019-02-28T07:57:53.215Z,87.70
2019-02-28T08:00:23.248Z,87.70
2019-02-28T08:02:52.591Z,87.70
2019-02-28T08:05:22.819Z,88.40
2019-02-28T08:07:52.743Z,87.60
2019-02-28T08:10:29.828Z,87.50
2019-02-28T08:12:59.159Z,87.60
2019-02-28T08:15:29.361Z,87.50
2019-02-28T08:17:58.640Z,87.30
2019-02-28T08:20:30.679Z,87.10
2019-02-28T08:22:58.897Z,87.10
2019-02-28T08:25:28.165Z,86.80
2019-02-28T08:27:59.795Z,86.70
2019-02-28T08:30:33.084Z,86.60
2019-02-28T08:33:02.437Z,86.40
2019-02-28T08:35:34.828Z,86.30
2019-02-28T08:38:02.679Z,86.00
2019-02-28T08:40:32.839Z,85.80
2019-02-28T08:43:02.114Z,85.60
2019-02-28T08:45:33.406Z,85.60
2019-02-28T08:48:02.360Z,85.40
2019-02-28T08:50:31.627Z,85.20
2019-02-28T08:53:03.414Z,84.90
2019-02-28T08:55:32.953Z,84.70
2019-02-28T08:58:06.147Z,84.50
2019-02-28T09:00:33.462Z,84.30
2019-02-28T09:03:02.859Z,83.90
2019-02-28T09:05:33.197Z,83.50
2019-02-28T09:08:02.550Z,83.20
2019-02-28T09:10:31.821Z,82.80
2019-02-28T09:13:02.171Z,82.50
2019-02-28T09:15:31.464Z,82.20
2019-02-28T09:18:00.732Z,81.90
2019-02-28T09:20:29.977Z,81.60
2019-02-28T09:23:02.126Z,81.30
2019-02-28T09:25:31.194Z,80.70
2019-02-28T09:28:00.466Z,80.50
2019-02-28T09:30:45.686Z,79.90
2019-02-28T09:33:14.961Z,79.60
2019-02-28T09:35:46.329Z,78.80
2019-02-28T09:38:15.285Z,78.30
2019-02-28T09:40:44.561Z,77.80
2019-02-28T09:43:13.841Z,77.30
2019-02-28T09:45:43.178Z,77.20
2019-02-28T09:48:12.477Z,76.60
2019-02-28T09:50:41.745Z,76.20
2019-02-28T09:53:15.495Z,75.90
2019-02-28T09:55:42.019Z,75.40
2019-02-28T09:58:11.289Z,74.90
2019-02-28T10:00:43.331Z,74.40
2019-02-28T10:03:11.607Z,73.80
2019-02-28T10:05:42.406Z,73.00
2019-02-28T10:08:11.873Z,72.50
2019-02-28T10:10:41.152Z,73.00
2019-02-28T10:13:10.436Z,72.00
2019-02-28T10:15:41.717Z,71.50
2019-02-28T10:18:10.698Z,71.60
2019-02-28T10:20:40.923Z,71.20
2019-02-28T10:23:10.222Z,70.70
2019-02-28T10:25:43.252Z,70.20
2019-02-28T10:28:10.500Z,69.80
2019-02-28T10:30:39.772Z,69.50
2019-02-28T10:33:09.046Z,69.00
2019-02-28T10:35:38.338Z,69.30
2019-02-28T10:38:07.615Z,68.10
2019-02-28T10:40:36.909Z,67.80
2019-02-28T10:43:06.187Z,67.90
2019-02-28T10:45:41.131Z,67.60
2019-02-28T10:48:06.440Z,67.80
2019-02-28T10:50:37.576Z,67.70
2019-02-28T10:53:06.928Z,67.30
2019-02-28T10:55:36.217Z,67.20
2019-02-28T10:58:05.564Z,67.00
2019-02-28T11:00:38.467Z,67.20
2019-02-28T11:03:07.813Z,67.20
2019-02-28T11:05:41.654Z,66.60
2019-02-28T11:08:17.388Z,66.80
2019-02-28T11:10:47.057Z,66.90
2019-02-28T11:13:19.421Z,66.70
2019-02-28T11:15:49.547Z,66.40
2019-02-28T11:18:18.807Z,66.00
2019-02-28T11:20:48.103Z,65.90
2019-02-28T11:23:17.716Z,66.00
2019-02-28T11:25:47.072Z,65.30
2019-02-28T11:28:16.351Z,64.90
2019-02-28T11:30:46.684Z,64.60
2019-02-28T11:33:17.493Z,64.20
2019-02-28T11:35:46.807Z,64.10
2019-02-28T11:38:20.506Z,63.90
2019-02-28T11:40:47.289Z,64.20
2019-02-28T11:43:16.635Z,64.00
2019-02-28T11:45:48.991Z,63.80
2019-02-28T11:48:26.747Z,63.80
2019-02-28T11:50:57.087Z,64.10
2019-02-28T11:53:26.355Z,64.30
2019-02-28T11:55:55.645Z,64.60
2019-02-28T11:58:24.943Z,64.70
2019-02-28T12:00:55.884Z,64.70
2019-02-28T12:03:25.171Z,64.30
2019-02-28T12:05:54.480Z,64.00
2019-02-28T12:08:23.740Z,63.80
2019-02-28T12:10:53.024Z,63.70
2019-02-28T12:13:22.321Z,63.60
2019-02-28T12:15:51.681Z,63.10
2019-02-28T12:18:22.035Z,63.10
2019-02-28T12:20:51.544Z,62.70
2019-02-28T12:23:23.425Z,62.70
2019-02-28T12:25:51.815Z,62.70
2019-02-28T12:28:21.098Z,63.10
2019-02-28T12:30:50.375Z,62.70
2019-02-28T12:33:23.146Z,62.40
2019-02-28T12:35:50.644Z,62.40
2019-02-28T12:38:19.939Z,62.30
2019-02-28T12:40:49.566Z,62.70
2019-02-28T12:43:18.988Z,62.90
2019-02-28T12:45:49.341Z,63.10
2019-02-28T12:48:19.706Z,64.30
2019-02-28T12:50:48.986Z,63.70
2019-02-28T12:53:18.280Z,64.30
2019-02-28T12:55:47.558Z,65.00
2019-02-28T12:58:16.853Z,65.90
2019-02-28T13:00:46.593Z,66.50
2019-02-28T13:03:19.801Z,68.10
2019-02-28T13:05:49.290Z,68.40
2019-02-28T13:08:19.121Z,69.00
2019-02-28T13:10:48.474Z,69.70
2019-02-28T13:13:21.682Z,70.70
2019-02-28T13:15:49.339Z,71.50
2019-02-28T13:18:18.835Z,72.10
2019-02-28T13:20:48.120Z,72.50
2019-02-28T13:23:17.415Z,72.80
2019-02-28T13:25:46.699Z,74.10
2019-02-28T13:28:17.780Z,75.20
2019-02-28T13:30:50.563Z,77.10
2019-02-28T13:33:17.973Z,78.70
2019-02-28T13:35:47.854Z,79.50
2019-02-28T13:38:19.069Z,80.70
2019-02-28T13:40:48.411Z,81.10
2019-02-28T13:43:20.964Z,82.00
2019-02-28T13:45:50.584Z,82.90
2019-02-28T13:48:26.070Z,83.70
2019-02-28T13:50:50.644Z,83.70
2019-02-28T13:53:19.935Z,84.10
2019-02-28T13:55:53.051Z,83.90
2019-02-28T13:58:21.575Z,84.20
2019-02-28T14:00:51.284Z,83.70
2019-02-28T14:03:20.634Z,84.00
2019-02-28T14:05:49.983Z,83.90
2019-02-28T14:08:19.272Z,84.40
2019-02-28T14:10:48.707Z,84.10
2019-02-28T14:13:18.001Z,84.50
2019-02-28T14:15:52.646Z,84.40
2019-02-28T14:18:20.484Z,84.40
2019-02-28T14:20:49.761Z,84.70
2019-02-28T14:23:20.874Z,84.40
2019-02-28T14:25:50.026Z,84.60
2019-02-28T14:28:19.567Z,84.40
2019-02-28T14:30:48.859Z,84.70
2019-02-28T14:33:19.410Z,84.40
2019-02-28T14:35:49.331Z,84.00
2019-02-28T14:38:18.609Z,83.60
2019-02-28T14:40:49.652Z,83.30
2019-02-28T14:43:19.654Z,82.90
2019-02-28T14:45:49.828Z,82.70
2019-02-28T14:48:19.109Z,82.50
2019-02-28T14:50:50.577Z,82.20
2019-02-28T14:53:19.364Z,82.10
2019-02-28T14:55:48.659Z,81.80
2019-02-28T14:58:21.241Z,81.70
2019-02-28T15:00:49.020Z,81.40
2019-02-28T15:03:18.296Z,81.40
2019-02-28T15:05:47.576Z,81.10
2019-02-28T15:08:16.845Z,80.90
2019-02-28T15:14:34.017Z,80.50
2019-02-28T15:17:06.945Z,79.80
2019-02-28T15:19:34.263Z,79.80
2019-02-28T15:22:03.541Z,79.60
2019-02-28T15:24:32.824Z,79.10
2019-02-28T15:27:04.176Z,78.80
2019-02-28T15:29:33.087Z,78.70
2019-02-28T15:32:02.367Z,78.40
2019-02-28T15:34:31.641Z,78.40
2019-02-28T15:37:01.024Z,78.40
2019-02-28T15:39:30.296Z,78.30
2019-02-28T15:41:59.576Z,78.20
2019-02-28T15:44:29.359Z,78.20
2019-02-28T15:46:59.413Z,78.30
2019-02-28T15:49:28.683Z,78.40
2019-02-28T15:51:57.971Z,78.60
2019-02-28T15:54:27.250Z,78.90
2019-02-28T15:56:56.547Z,78.80
2019-02-28T15:59:25.817Z,78.80
2019-02-28T16:01:55.107Z,78.80
2019-02-28T16:04:26.308Z,78.80
2019-02-28T16:06:57.899Z,78.80
2019-02-28T16:09:26.334Z,78.70
2019-02-28T16:11:55.628Z,78.60
2019-02-28T16:14:24.901Z,78.40
2019-02-28T16:16:56.838Z,78.30
2019-02-28T16:19:26.132Z,77.90
2019-02-28T16:21:55.416Z,77.80
2019-02-28T16:24:24.703Z,77.90
2019-02-28T16:26:56.816Z,77.70
2019-02-28T16:29:24.952Z,77.70
2019-02-28T16:31:54.244Z,77.60
2019-02-28T16:34:23.526Z,77.60
2019-02-28T16:36:52.820Z,77.50
2019-02-28T16:39:22.091Z,77.60
2019-02-28T16:41:51.368Z,77.70
2019-02-28T16:44:20.657Z,77.70
2019-02-28T16:46:50.857Z,77.50
2019-02-28T16:49:20.192Z,77.10
2019-02-28T16:51:49.478Z,76.90
2019-02-28T16:54:19.415Z,76.60
2019-02-28T16:56:49.738Z,76.60
2019-02-28T16:59:19.016Z,76.80
2019-02-28T17:01:51.275Z,76.70
2019-02-28T17:04:19.283Z,76.50
2019-02-28T17:06:48.577Z,76.50
2019-02-28T17:09:19.496Z,76.40
2019-02-28T17:11:51.192Z,76.50
2019-02-28T17:14:21.370Z,76.60
2019-02-28T17:16:52.298Z,76.80
2019-02-28T17:19:21.561Z,77.00
2019-02-28T17:21:52.483Z,77.20
2019-02-28T17:24:21.883Z,78.30
2019-02-28T17:26:52.815Z,78.40
2019-02-28T17:29:25.175Z,78.70
2019-02-28T17:31:54.708Z,79.00
2019-02-28T17:34:24.285Z,79.60
2019-02-28T17:36:54.444Z,80.00
2019-02-28T17:39:23.868Z,79.80
2019-02-28T17:41:53.141Z,80.00
2019-02-28T17:44:28.171Z,80.30
2019-02-28T17:47:06.098Z,80.20
2019-02-28T17:50:05.619Z,80.10
2019-02-28T17:52:45.048Z,80.20
2019-02-28T17:55:38.376Z,80.30
2019-02-28T17:58:10.740Z,80.40
2019-02-28T18:00:52.905Z,80.30
2019-02-28T18:03:37.084Z,80.50
2019-02-28T18:06:29.330Z,80.50
2019-02-28T18:09:12.725Z,80.60
2019-02-28T18:11:50.669Z,80.70
2019-02-28T18:14:23.028Z,80.70
2019-02-28T18:17:27.068Z,80.80
2019-02-28T18:20:08.093Z,80.90
2019-02-28T18:22:43.152Z,80.90
2019-02-28T18:25:26.879Z,81.00
2019-02-28T18:28:02.376Z,81.00
2019-02-28T18:30:51.422Z,81.10
2019-02-28T18:33:20.713Z,81.30
2019-02-28T18:35:51.043Z,81.30
2019-02-28T18:38:20.317Z,81.50
2019-02-28T18:40:49.593Z,81.40
2019-02-28T18:43:18.885Z,81.50
2019-02-28T18:45:48.339Z,81.40
2019-02-28T18:48:18.655Z,81.40
2019-02-28T18:50:48.104Z,81.30
2019-02-28T18:53:17.364Z,81.30
2019-02-28T18:55:46.659Z,81.30
2019-02-28T18:58:15.949Z,81.30
2019-02-28T19:00:45.394Z,81.10
2019-02-28T19:03:14.669Z,81.20
2019-02-28T19:05:43.952Z,81.10
2019-02-28T19:08:13.240Z,81.10
2019-02-28T19:10:42.524Z,81.30
2019-02-28T19:13:11.864Z,81.70
2019-02-28T19:15:41.229Z,81.70
2019-02-28T19:18:10.504Z,81.70
2019-02-28T19:20:39.795Z,82.00
2019-02-28T19:23:09.064Z,82.30
2019-02-28T19:25:38.352Z,82.60
2019-02-28T19:28:07.628Z,83.10
2019-02-28T19:30:37.084Z,83.30
2019-02-28T19:33:06.368Z,84.30
2019-02-28T19:35:35.657Z,85.00
2019-02-28T19:38:05.239Z,85.80
2019-02-28T19:40:34.590Z,86.50
2019-02-28T19:43:04.950Z,87.10
2019-02-28T19:45:40.875Z,87.80
2019-02-28T19:48:10.192Z,88.00
2019-02-28T19:50:39.486Z,88.40
2019-02-28T19:53:08.765Z,88.60
2019-02-28T19:55:38.115Z,88.90
2019-02-28T19:58:07.424Z,89.60
2019-02-28T20:00:36.820Z,89.60
2019-02-28T20:03:06.115Z,89.80
2019-02-28T20:05:35.466Z,89.90
2019-02-28T20:08:05.897Z,90.00
2019-02-28T20:10:35.412Z,90.20
2019-02-28T20:13:05.973Z,90.30
2019-02-28T20:15:36.965Z,90.30
2019-02-28T20:18:06.242Z,90.40
2019-02-28T20:20:35.517Z,90.60
2019-02-28T20:23:04.960Z,90.60
2019-02-28T20:25:34.259Z,90.60
2019-02-28T20:28:03.637Z,90.80
2019-02-28T20:30:32.916Z,90.80
2019-02-28T20:33:02.200Z,91.00
2019-02-28T20:35:31.627Z,91.00
2019-02-28T20:38:00.941Z,91.00
2019-02-28T20:40:32.653Z,91.00
2019-02-28T20:43:01.983Z,91.00
2019-02-28T20:45:32.150Z,91.00
2019-02-28T20:48:01.460Z,91.10
2019-02-28T20:50:34.923Z,91.20
2019-02-28T20:53:05.377Z,91.20
2019-02-28T20:55:34.918Z,91.20
2019-02-28T20:58:04.412Z,91.30
2019-02-28T21:00:34.761Z,91.30
2019-02-28T21:03:04.113Z,91.40
2019-02-28T21:05:33.456Z,91.50
2019-02-28T21:08:02.745Z,91.60
2019-02-28T21:10:32.196Z,91.60
2019-02-28T21:13:01.565Z,91.70
2019-02-28T21:15:30.981Z,91.70
2019-02-28T21:18:00.272Z,91.80
2019-02-28T21:20:29.615Z,91.90
2019-02-28T21:22:58.907Z,91.90
2019-02-28T21:25:28.184Z,92.00
2019-02-28T21:27:57.457Z,92.00
2019-02-28T21:30:27.785Z,92.10
2019-02-28T21:32:57.118Z,92.10
2019-02-28T21:35:26.839Z,92.10
2019-02-28T21:37:56.193Z,92.10
2019-02-28T21:40:25.599Z,92.20
2019-02-28T21:42:54.890Z,92.10
2019-02-28T21:45:25.411Z,92.10
2019-02-28T21:47:54.945Z,92.20
2019-02-28T21:50:24.269Z,92.10
2019-02-28T21:52:54.530Z,92.20
2019-02-28T21:55:23.813Z,92.20
2019-02-28T21:57:53.172Z,92.20
2019-02-28T22:00:27.721Z,92.20
2019-02-28T22:02:56.984Z,92.20
2019-02-28T22:05:26.337Z,92.20
2019-02-28T22:07:55.611Z,92.30
2019-02-28T22:10:24.904Z,92.30
2019-02-28T22:12:54.189Z,92.30
2019-02-28T22:15:26.568Z,92.30
2019-02-28T22:17:55.838Z,92.40
2019-02-28T22:20:25.148Z,92.40
2019-02-28T22:22:54.723Z,92.40
2019-02-28T22:25:24.026Z,92.40
2019-02-28T22:27:53.293Z,92.40
2019-02-28T22:30:33.552Z,92.40
2019-02-28T22:33:16.292Z,92.40
2019-02-28T22:35:53.079Z,92.30
2019-02-28T22:38:22.356Z,92.30
2019-02-28T22:40:51.733Z,92.30
2019-02-28T22:43:21.001Z,92.30
2019-02-28T22:45:50.284Z,92.30
2019-02-28T22:48:19.549Z,92.30
2019-02-28T22:50:48.845Z,92.30
2019-02-28T22:53:18.107Z,92.20
2019-02-28T22:55:47.386Z,92.20
2019-02-28T22:58:16.656Z,92.20
2019-02-28T23:01:05.824Z,92.10
2019-02-28T23:03:36.298Z,92.10
2019-02-28T23:06:06.217Z,92.00
2019-02-28T23:08:35.485Z,92.00
2019-02-28T23:11:04.824Z,92.00
2019-02-28T23:13:34.091Z,92.00
2019-02-28T23:16:05.321Z,91.90
2019-02-28T23:18:34.596Z,91.80
2019-02-28T23:21:03.892Z,91.70
2019-02-28T23:23:33.144Z,91.70
2019-02-28T23:26:10.464Z,91.70
2019-02-28T23:28:48.560Z,91.70
2019-02-28T23:31:40.688Z,92.00
2019-02-28T23:34:13.037Z,91.80
2019-02-28T23:36:42.303Z,91.80
2019-02-28T23:39:11.585Z,92.00
2019-02-28T23:41:41.017Z,92.20
2019-02-28T23:44:10.282Z,92.20
2019-02-28T23:46:39.555Z,92.40
2019-02-28T23:49:08.815Z,92.40
2019-02-28T23:51:38.095Z,92.50
2019-02-28T23:54:07.358Z,92.60
2019-02-28T23:56:36.627Z,92.70
2019-02-28T23:59:05.892Z,92.60
